Time;durP1;ratioP1;P1;durP2;ratioP2;P2;SDS_P1;SDS_P2;PMS_P1;PMS_P2;Temp;Humidity;BMP_temperature;BMP_pressure;BME280_temperature;BME280_humidity;BME280_pressure;Samples;Min_cycle;Max_cycle;Signal;HPM_P1;HPM_P2
2024/04/20 00:02:17;;;;;;;1.70;1.10;;;;;;;;;;5345428;26;20008;-65
2024/04/20 00:04:46;;;;;;;1.77;1.02;;;;;;;;;;5346218;26;20005;-61
2024/04/20 00:07:11;;;;;;;1.63;0.90;;;;;;;;;;5349610;26;19993;-67
2024/04/20 00:09:37;;;;;;;2.13;1.20;;;;;;;;;;5349189;26;20001;-67
2024/04/20 00:12:02;;;;;;;1.95;1.00;;;;;;;;;;5347474;26;20334;-74
2024/04/20 00:14:28;;;;;;;1.23;0.98;;;;;;;;;;5342173;26;20019;-65
2024/04/20 00:16:55;;;;;;;2.30;1.35;;;;;;;;;;5337841;26;20009;-65
2024/04/20 00:19:20;;;;;;;2.05;1.20;;;;;;;;;;5339516;26;20021;-73
2024/04/20 00:21:47;;;;;;;1.95;1.30;;;;;;;;;;5339786;26;20355;-64
2024/04/20 00:24:12;;;;;;;2.28;1.00;;;;;;;;;;5337716;26;20005;-68
2024/04/20 00:26:38;;;;;;;2.33;1.00;;;;;;;;;;5337168;26;20454;-72
2024/04/20 00:29:03;;;;;;;1.50;1.00;;;;;;;;;;5337917;26;20425;-60
2024/04/20 00:31:30;;;;;;;1.40;0.90;;;;;;;;;;5324440;26;20692;-66
2024/04/20 00:33:55;;;;;;;1.10;0.90;;;;;;;;;;5299712;26;20033;-73
2024/04/20 00:36:21;;;;;;;1.92;1.20;;;;;;;;;;5305454;26;20005;-67
2024/04/20 00:38:47;;;;;;;1.58;0.88;;;;;;;;;;5295787;26;20033;-65
2024/04/20 00:41:15;;;;;;;2.22;1.20;;;;;;;;;;5304544;26;20478;-66
2024/04/20 00:43:40;;;;;;;1.88;1.20;;;;;;;;;;5310748;26;20040;-66
2024/04/20 00:46:05;;;;;;;1.90;1.05;;;;;;;;;;5337591;26;20001;-67
2024/04/20 00:48:31;;;;;;;2.65;1.23;;;;;;;;;;5306172;26;20002;-74
2024/04/20 00:50:56;;;;;;;1.48;0.90;;;;;;;;;;5310828;26;20012;-69
2024/04/20 00:53:21;;;;;;;1.80;1.10;;;;;;;;;;5334323;26;20009;-64
2024/04/20 00:55:47;;;;;;;1.52;0.80;;;;;;;;;;5338099;26;20451;-69
2024/04/20 00:58:14;;;;;;;1.20;0.80;;;;;;;;;;5335499;26;20054;-62
2024/04/20 01:00:39;;;;;;;1.63;1.10;;;;;;;;;;5337723;26;20068;-65
2024/04/20 01:03:04;;;;;;;1.98;1.17;;;;;;;;;;5336450;26;20021;-72
2024/04/20 01:05:30;;;;;;;1.95;1.23;;;;;;;;;;5335593;26;20745;-69
2024/04/20 01:07:55;;;;;;;1.17;0.90;;;;;;;;;;5336217;26;20013;-72
2024/04/20 01:10:20;;;;;;;1.58;0.88;;;;;;;;;;5338646;26;20005;-75
2024/04/20 01:12:46;;;;;;;1.38;1.00;;;;;;;;;;5363380;26;20004;-68
2024/04/20 01:15:11;;;;;;;1.27;0.82;;;;;;;;;;5329088;26;20028;-72
2024/04/20 01:17:36;;;;;;;1.83;0.90;;;;;;;;;;5302509;26;20006;-67
2024/04/20 01:20:02;;;;;;;1.88;1.08;;;;;;;;;;5287536;26;20005;-69
2024/04/20 01:22:27;;;;;;;1.38;0.93;;;;;;;;;;5289604;27;20002;-68
2024/04/20 01:24:54;;;;;;;1.60;1.00;;;;;;;;;;5305981;26;20076;-71
2024/04/20 01:27:19;;;;;;;1.25;0.82;;;;;;;;;;5305610;26;20005;-68
2024/04/20 01:29:45;;;;;;;1.63;1.00;;;;;;;;;;5306713;26;20032;-62
2024/04/20 01:32:10;;;;;;;1.88;0.90;;;;;;;;;;5294253;26;20002;-63
2024/04/20 01:34:36;;;;;;;1.85;0.93;;;;;;;;;;5322585;26;20012;-64
2024/04/20 01:37:01;;;;;;;1.30;0.80;;;;;;;;;;5334694;26;20001;-64
2024/04/20 01:39:26;;;;;;;1.52;1.08;;;;;;;;;;5311693;26;20001;-71
2024/04/20 01:41:52;;;;;;;1.23;0.80;;;;;;;;;;5306786;26;20064;-66
2024/04/20 01:44:17;;;;;;;1.67;1.05;;;;;;;;;;5302306;26;20075;-72
2024/04/20 01:46:43;;;;;;;1.40;1.00;;;;;;;;;;5341706;26;20017;-64
2024/04/20 01:49:09;;;;;;;1.23;1.00;;;;;;;;;;5342140;26;20016;-66
2024/04/20 01:51:34;;;;;;;1.48;1.00;;;;;;;;;;5339082;26;20001;-70
2024/04/20 01:53:59;;;;;;;1.85;1.08;;;;;;;;;;5339626;26;20011;-68
2024/04/20 01:56:25;;;;;;;1.50;1.10;;;;;;;;;;5340909;26;20001;-62
2024/04/20 01:58:51;;;;;;;1.27;0.80;;;;;;;;;;5343329;26;20012;-70
2024/04/20 02:01:16;;;;;;;1.95;0.80;;;;;;;;;;5342307;26;20005;-73
2024/04/20 02:03:41;;;;;;;1.27;0.90;;;;;;;;;;5334727;26;20012;-71
2024/04/20 02:06:07;;;;;;;2.25;0.93;;;;;;;;;;5340777;26;20023;-67
2024/04/20 02:08:32;;;;;;;1.73;0.90;;;;;;;;;;5334851;26;20424;-75
2024/04/20 02:10:57;;;;;;;1.33;0.90;;;;;;;;;;5327017;26;20005;-75
2024/04/20 02:13:23;;;;;;;1.80;1.00;;;;;;;;;;5338801;26;19997;-70
2024/04/20 02:15:48;;;;;;;1.40;1.00;;;;;;;;;;5333367;26;20074;-69
2024/04/20 02:18:14;;;;;;;1.67;1.00;;;;;;;;;;5339806;26;20004;-64
2024/04/20 02:20:39;;;;;;;1.25;0.90;;;;;;;;;;5339648;26;20443;-65
2024/04/20 02:23:04;;;;;;;1.00;0.75;;;;;;;;;;5339465;26;20000;-71
2024/04/20 02:25:30;;;;;;;1.27;0.90;;;;;;;;;;5339416;26;20011;-68
2024/04/20 02:27:55;;;;;;;1.25;0.80;;;;;;;;;;5334682;26;20021;-71
2024/04/20 02:30:20;;;;;;;1.15;0.90;;;;;;;;;;5337885;26;20011;-72
2024/04/20 02:32:46;;;;;;;1.52;1.00;;;;;;;;;;5339907;26;20012;-73
2024/04/20 02:35:11;;;;;;;1.27;0.85;;;;;;;;;;5338918;26;20020;-64
2024/04/20 02:37:37;;;;;;;1.75;0.90;;;;;;;;;;5339559;26;20004;-74
2024/04/20 02:40:03;;;;;;;1.48;0.80;;;;;;;;;;5338916;26;20005;-66
2024/04/20 02:42:28;;;;;;;1.55;0.88;;;;;;;;;;5339710;26;20017;-75
2024/04/20 02:44:53;;;;;;;1.23;0.82;;;;;;;;;;5339717;26;20414;-72
2024/04/20 02:47:19;;;;;;;2.17;0.80;;;;;;;;;;5339488;26;20443;-73
2024/04/20 02:49:44;;;;;;;1.42;0.95;;;;;;;;;;5339604;26;20012;-73
2024/04/20 02:52:09;;;;;;;1.33;0.90;;;;;;;;;;5338366;26;20012;-74
2024/04/20 02:54:34;;;;;;;1.65;1.17;;;;;;;;;;5339820;26;20000;-70
2024/04/20 02:57:00;;;;;;;0.95;0.70;;;;;;;;;;5343901;26;20113;-66
2024/04/20 02:59:25;;;;;;;1.85;0.85;;;;;;;;;;5338435;26;20005;-72
2024/04/20 03:01:51;;;;;;;1.55;1.00;;;;;;;;;;5339474;26;20037;-71
2024/04/20 03:04:16;;;;;;;1.27;0.80;;;;;;;;;;5333899;26;20016;-68
2024/04/20 03:06:41;;;;;;;1.40;0.80;;;;;;;;;;5340219;26;20005;-70
2024/04/20 03:09:06;;;;;;;2.10;0.90;;;;;;;;;;5344771;26;20493;-64
2024/04/20 03:11:32;;;;;;;1.70;0.82;;;;;;;;;;5332114;26;20001;-69
2024/04/20 03:13:57;;;;;;;2.03;0.90;;;;;;;;;;5294135;26;20006;-72
2024/04/20 03:16:22;;;;;;;1.52;1.05;;;;;;;;;;5291480;26;20016;-73
2024/04/20 03:18:48;;;;;;;1.75;0.98;;;;;;;;;;5309205;26;20006;-71
2024/04/20 03:21:13;;;;;;;1.20;0.77;;;;;;;;;;5304406;26;20423;-63
2024/04/20 03:23:39;;;;;;;1.40;0.90;;;;;;;;;;5289827;26;20878;-62
2024/04/20 03:26:04;;;;;;;1.48;0.90;;;;;;;;;;5289068;26;20017;-63
2024/04/20 03:28:30;;;;;;;1.38;0.88;;;;;;;;;;5303770;26;20037;-65
2024/04/20 03:30:55;;;;;;;1.17;0.80;;;;;;;;;;5299855;26;20002;-60
2024/04/20 03:33:22;;;;;;;1.63;0.90;;;;;;;;;;5281643;26;20002;-63
2024/04/20 03:35:53;;;;;;;1.30;0.90;;;;;;;;;;5302182;26;20017;-62
2024/04/20 03:38:19;;;;;;;1.48;0.95;;;;;;;;;;5303641;26;20029;-73
2024/04/20 03:40:44;;;;;;;2.08;0.93;;;;;;;;;;5299887;26;20006;-70
2024/04/20 03:43:09;;;;;;;1.48;0.90;;;;;;;;;;5300839;26;20085;-66
2024/04/20 03:45:35;;;;;;;1.83;1.00;;;;;;;;;;5271094;27;20006;-71
2024/04/20 03:48:00;;;;;;;1.38;0.90;;;;;;;;;;5302162;26;19998;-65
2024/04/20 03:50:26;;;;;;;1.45;0.93;;;;;;;;;;5300014;26;20013;-67
2024/04/20 03:52:51;;;;;;;1.63;0.73;;;;;;;;;;5300519;26;20023;-66
2024/04/20 03:55:18;;;;;;;1.30;0.70;;;;;;;;;;5299634;26;20016;-67
2024/04/20 03:57:43;;;;;;;1.20;0.90;;;;;;;;;;5300306;26;20002;-66
2024/04/20 04:00:11;;;;;;;1.58;1.00;;;;;;;;;;5293374;26;20076;-71
2024/04/20 04:02:37;;;;;;;1.30;0.85;;;;;;;;;;5299698;26;20079;-69
2024/04/20 04:05:03;;;;;;;1.63;0.90;;;;;;;;;;5289883;26;20013;-74
2024/04/20 04:07:28;;;;;;;1.67;1.00;;;;;;;;;;5315941;26;20005;-75
2024/04/20 04:09:53;;;;;;;1.40;0.88;;;;;;;;;;5314746;26;20027;-70
2024/04/20 04:12:18;;;;;;;2.20;0.82;;;;;;;;;;5326392;26;20128;-61
2024/04/20 04:14:44;;;;;;;1.83;0.93;;;;;;;;;;5331270;26;20004;-66
2024/04/20 04:17:09;;;;;;;1.50;1.05;;;;;;;;;;5350868;26;20776;-67
2024/04/20 04:19:35;;;;;;;1.65;1.00;;;;;;;;;;5334870;26;20033;-66
2024/04/20 04:22:00;;;;;;;1.58;0.90;;;;;;;;;;5334694;26;20037;-67
2024/04/20 04:24:25;;;;;;;1.80;1.02;;;;;;;;;;5320124;26;20011;-61
2024/04/20 04:26:51;;;;;;;1.50;0.88;;;;;;;;;;5329889;26;19997;-68
2024/04/20 04:29:16;;;;;;;2.17;0.90;;;;;;;;;;5325327;26;20008;-67
2024/04/20 04:31:42;;;;;;;1.73;0.80;;;;;;;;;;5313430;26;20344;-64
2024/04/20 04:34:07;;;;;;;3.55;0.77;;;;;;;;;;5330963;26;20849;-66
2024/04/20 04:36:32;;;;;;;1.27;0.85;;;;;;;;;;5334464;26;20004;-64
2024/04/20 04:39:00;;;;;;;1.50;1.00;;;;;;;;;;5326967;26;20017;-67
2024/04/20 04:41:26;;;;;;;1.35;0.80;;;;;;;;;;5309109;26;20005;-69
2024/04/20 04:43:51;;;;;;;1.00;0.70;;;;;;;;;;5327622;26;20019;-66
2024/04/20 04:46:16;;;;;;;2.00;0.90;;;;;;;;;;5316196;26;20013;-65
2024/04/20 04:48:41;;;;;;;1.52;1.00;;;;;;;;;;5315829;26;20013;-66
2024/04/20 04:51:07;;;;;;;3.05;0.90;;;;;;;;;;5321664;26;20029;-71
2024/04/20 04:53:32;;;;;;;1.27;0.75;;;;;;;;;;5314277;26;20005;-70
2024/04/20 04:55:57;;;;;;;1.38;0.85;;;;;;;;;;5325107;26;20015;-67
2024/04/20 05:01:07;;;;;;;1.60;0.90;;;;;;;;;;5335337;26;20029;-67
2024/04/20 05:03:32;;;;;;;1.40;0.88;;;;;;;;;;5333600;26;20001;-70
2024/04/20 05:05:57;;;;;;;2.67;1.10;;;;;;;;;;5332002;26;20308;-64
2024/04/20 05:08:26;;;;;;;1.30;0.80;;;;;;;;;;5336012;26;20019;-66
2024/04/20 05:10:52;;;;;;;1.10;0.80;;;;;;;;;;5324586;26;19998;-66
2024/04/20 05:13:17;;;;;;;2.28;0.95;;;;;;;;;;5334188;26;20410;-68
2024/04/20 05:15:42;;;;;;;1.60;0.80;;;;;;;;;;5347128;26;20015;-64
2024/04/20 05:18:08;;;;;;;1.52;0.82;;;;;;;;;;5338721;26;20031;-65
2024/04/20 05:20:35;;;;;;;1.13;0.75;;;;;;;;;;5338124;26;19997;-65
2024/04/20 05:23:01;;;;;;;0.82;0.60;;;;;;;;;;5336307;26;20001;-63
2024/04/20 05:25:26;;;;;;;1.20;0.80;;;;;;;;;;5327742;26;20127;-65
2024/04/20 05:27:51;;;;;;;1.35;0.85;;;;;;;;;;5322211;26;20460;-66
2024/04/20 05:30:16;;;;;;;1.17;0.70;;;;;;;;;;5337614;26;20088;-65
2024/04/20 05:32:42;;;;;;;1.65;1.00;;;;;;;;;;5337673;26;20016;-66
2024/04/20 05:35:07;;;;;;;1.35;0.77;;;;;;;;;;5335835;26;20029;-63
2024/04/20 05:37:32;;;;;;;2.95;0.90;;;;;;;;;;5327454;26;20048;-59
2024/04/20 05:39:58;;;;;;;2.45;2.03;;;;;;;;;;5332259;26;20024;-60
2024/04/20 05:42:23;;;;;;;4.05;2.65;;;;;;;;;;5332389;26;20001;-58
2024/04/20 05:44:48;;;;;;;3.55;2.90;;;;;;;;;;5324208;26;20020;-58
2024/04/20 05:47:14;;;;;;;3.67;2.80;;;;;;;;;;5334247;26;20118;-59
2024/04/20 05:49:40;;;;;;;6.93;3.47;;;;;;;;;;5335702;26;20001;-58
2024/04/20 05:52:06;;;;;;;5.32;2.70;;;;;;;;;;5327687;26;20003;-59
2024/04/20 05:54:31;;;;;;;3.35;2.95;;;;;;;;;;5333646;26;19993;-59
2024/04/20 05:56:56;;;;;;;4.68;3.00;;;;;;;;;;5320765;26;20063;-59
2024/04/20 05:59:22;;;;;;;3.80;2.65;;;;;;;;;;5316212;26;20037;-58
2024/04/20 06:01:47;;;;;;;3.63;2.88;;;;;;;;;;5337657;26;20019;-58
2024/04/20 06:04:12;;;;;;;3.42;2.80;;;;;;;;;;5313254;26;20221;-58
2024/04/20 06:06:38;;;;;;;4.70;3.38;;;;;;;;;;5316320;26;20015;-60
2024/04/20 06:09:03;;;;;;;5.68;3.00;;;;;;;;;;5322269;26;20036;-59
2024/04/20 06:11:28;;;;;;;5.55;3.05;;;;;;;;;;5339324;26;20005;-58
2024/04/20 06:13:54;;;;;;;5.80;3.17;;;;;;;;;;5338841;26;20004;-58
2024/04/20 06:16:19;;;;;;;4.45;2.90;;;;;;;;;;5337264;26;20005;-59
2024/04/20 06:18:44;;;;;;;3.75;2.80;;;;;;;;;;5320952;26;20001;-58
2024/04/20 06:21:10;;;;;;;4.13;3.58;;;;;;;;;;5327887;26;20005;-59
2024/04/20 06:23:35;;;;;;;4.20;2.75;;;;;;;;;;5314380;26;20439;-59
2024/04/20 06:26:00;;;;;;;4.15;3.15;;;;;;;;;;5347456;26;20003;-58
2024/04/20 06:28:26;;;;;;;3.75;3.00;;;;;;;;;;5336149;26;20365;-58
2024/04/20 06:30:53;;;;;;;4.63;2.90;;;;;;;;;;5318377;26;20020;-59
2024/04/20 06:33:18;;;;;;;3.92;2.80;;;;;;;;;;5335893;26;20001;-59
2024/04/20 06:35:43;;;;;;;3.75;2.75;;;;;;;;;;5328831;26;20020;-58
2024/04/20 06:38:09;;;;;;;5.15;2.90;;;;;;;;;;5337670;26;20436;-59
2024/04/20 06:40:34;;;;;;;4.25;3.00;;;;;;;;;;5337528;26;20001;-59
2024/04/20 06:43:00;;;;;;;5.85;2.80;;;;;;;;;;5324055;26;20027;-58
2024/04/20 06:45:25;;;;;;;4.70;2.80;;;;;;;;;;5317887;26;20451;-59
2024/04/20 06:47:50;;;;;;;4.60;2.63;;;;;;;;;;5331351;26;20151;-59
2024/04/20 06:50:18;;;;;;;4.43;2.90;;;;;;;;;;5334823;26;20186;-59
2024/04/20 06:52:44;;;;;;;3.72;2.70;;;;;;;;;;5319493;26;20071;-59
2024/04/20 06:55:09;;;;;;;3.30;2.38;;;;;;;;;;5318717;26;20009;-59
2024/04/20 06:57:34;;;;;;;3.25;2.90;;;;;;;;;;5314654;26;20421;-58
2024/04/20 07:00:00;;;;;;;5.65;2.90;;;;;;;;;;5329546;26;20439;-59
2024/04/20 07:02:25;;;;;;;4.88;2.67;;;;;;;;;;5331941;26;20420;-59
2024/04/20 07:04:52;;;;;;;4.15;2.67;;;;;;;;;;5310271;26;20026;-59
2024/04/20 07:07:17;;;;;;;5.22;2.90;;;;;;;;;;5313086;26;20028;-58
2024/04/20 07:09:43;;;;;;;4.55;3.03;;;;;;;;;;5336189;26;20009;-59
2024/04/20 07:12:08;;;;;;;4.78;3.00;;;;;;;;;;5337789;26;20011;-59
2024/04/20 07:14:34;;;;;;;3.60;2.50;;;;;;;;;;5334464;26;20001;-59
2024/04/20 07:16:59;;;;;;;4.28;3.33;;;;;;;;;;5318638;26;20002;-58
2024/04/20 07:19:25;;;;;;;4.75;3.05;;;;;;;;;;5320120;26;20005;-59
2024/04/20 07:21:51;;;;;;;4.80;2.85;;;;;;;;;;5307451;26;20006;-58
2024/04/20 07:24:16;;;;;;;5.32;2.90;;;;;;;;;;5322150;26;20292;-59
2024/04/20 07:26:42;;;;;;;4.13;2.75;;;;;;;;;;5324505;26;20020;-58
2024/04/20 07:29:07;;;;;;;4.40;2.70;;;;;;;;;;5326496;26;20350;-59
2024/04/20 07:31:32;;;;;;;4.82;2.95;;;;;;;;;;5307829;26;20045;-59
2024/04/20 07:33:58;;;;;;;4.68;3.00;;;;;;;;;;5317099;26;20020;-59
2024/04/20 07:36:24;;;;;;;4.95;2.75;;;;;;;;;;5331052;26;20077;-58
2024/04/20 07:38:49;;;;;;;4.60;2.75;;;;;;;;;;5324228;26;20086;-58
2024/04/20 07:41:15;;;;;;;3.30;2.58;;;;;;;;;;5327565;26;20143;-58
2024/04/20 07:43:40;;;;;;;3.72;2.35;;;;;;;;;;5315551;26;20001;-58
2024/04/20 07:46:06;;;;;;;4.07;2.70;;;;;;;;;;5285434;26;20006;-59
2024/04/20 07:48:32;;;;;;;3.88;2.58;;;;;;;;;;5304794;26;20331;-60
2024/04/20 07:50:58;;;;;;;5.43;2.70;;;;;;;;;;5284417;26;20045;-58
2024/04/20 07:53:23;;;;;;;4.00;2.38;;;;;;;;;;5296027;26;20816;-60
2024/04/20 07:55:48;;;;;;;4.63;2.78;;;;;;;;;;5296734;26;20004;-59
2024/04/20 07:58:14;;;;;;;4.07;2.45;;;;;;;;;;5285397;26;19999;-59
2024/04/20 08:00:39;;;;;;;6.20;2.40;;;;;;;;;;5301777;26;20067;-59
2024/04/20 08:03:05;;;;;;;4.43;2.60;;;;;;;;;;5282797;26;20383;-59
2024/04/20 08:05:30;;;;;;;4.47;2.45;;;;;;;;;;5290793;26;20017;-59
2024/04/20 08:07:55;;;;;;;4.55;2.67;;;;;;;;;;5277479;26;20459;-59
2024/04/20 08:10:21;;;;;;;4.90;2.65;;;;;;;;;;5294256;26;20070;-59
2024/04/20 08:12:46;;;;;;;3.60;2.50;;;;;;;;;;5295883;27;20021;-59
2024/04/20 08:15:11;;;;;;;3.30;2.30;;;;;;;;;;5286032;26;20051;-59
2024/04/20 08:17:37;;;;;;;3.92;2.50;;;;;;;;;;5282716;27;20053;-59
2024/04/20 08:20:02;;;;;;;5.18;2.88;;;;;;;;;;5293385;26;19998;-59
2024/04/20 08:22:27;;;;;;;3.88;2.70;;;;;;;;;;5303774;26;20025;-59
2024/04/20 08:24:53;;;;;;;3.05;2.30;;;;;;;;;;5302720;26;20016;-59
2024/04/20 08:27:20;;;;;;;3.10;2.40;;;;;;;;;;5302804;26;20008;-59
2024/04/20 08:29:45;;;;;;;4.55;2.40;;;;;;;;;;5296904;26;20010;-59
2024/04/20 08:32:10;;;;;;;3.63;2.60;;;;;;;;;;5301855;26;20001;-58
2024/04/20 08:34:36;;;;;;;4.43;2.47;;;;;;;;;;5302739;26;20013;-59
2024/04/20 08:37:01;;;;;;;4.28;2.88;;;;;;;;;;5302537;26;20012;-59
2024/04/20 08:39:27;;;;;;;3.45;2.50;;;;;;;;;;5302501;26;20034;-59
2024/04/20 08:42:03;;;;;;;3.00;2.50;;;;;;;;;;5300272;26;20336;-59
2024/04/20 08:44:28;;;;;;;4.90;3.13;;;;;;;;;;5300884;26;20042;-58
2024/04/20 08:46:53;;;;;;;6.72;3.78;;;;;;;;;;5302922;26;19998;-58
2024/04/20 08:49:24;;;;;;;5.38;3.70;;;;;;;;;;5297231;26;20010;-59
2024/04/20 08:51:49;;;;;;;12.40;6.40;;;;;;;;;;5302442;26;20006;-59
2024/04/20 08:54:16;;;;;;;5.95;3.55;;;;;;;;;;5300565;26;20026;-58
2024/04/20 08:56:41;;;;;;;16.52;8.45;;;;;;;;;;5302890;26;20156;-59
2024/04/20 08:59:07;;;;;;;9.50;5.30;;;;;;;;;;5300610;26;20013;-58
2024/04/20 09:01:33;;;;;;;12.00;5.78;;;;;;;;;;5272345;27;20005;-59
2024/04/20 09:03:59;;;;;;;7.82;4.82;;;;;;;;;;5302283;26;20002;-58
2024/04/20 09:06:24;;;;;;;6.03;3.90;;;;;;;;;;5302398;26;20010;-58
2024/04/20 09:08:49;;;;;;;5.28;3.40;;;;;;;;;;5301210;27;20030;-59
2024/04/20 09:11:15;;;;;;;6.60;3.63;;;;;;;;;;5298144;26;20006;-58
2024/04/20 09:13:40;;;;;;;5.43;3.05;;;;;;;;;;5275387;26;20016;-59
2024/04/20 09:16:06;;;;;;;3.97;2.85;;;;;;;;;;5302012;26;20005;-58
2024/04/20 09:18:31;;;;;;;5.10;2.72;;;;;;;;;;5302852;26;20006;-59
2024/04/20 09:20:57;;;;;;;5.25;2.70;;;;;;;;;;5301874;26;20001;-59
2024/04/20 09:23:25;;;;;;;4.18;3.00;;;;;;;;;;5301860;26;20017;-59
2024/04/20 09:25:51;;;;;;;5.13;3.00;;;;;;;;;;5301621;26;20006;-58
2024/04/20 09:28:16;;;;;;;5.20;3.25;;;;;;;;;;5301724;26;20079;-58
2024/04/20 09:30:41;;;;;;;5.57;2.90;;;;;;;;;;5299627;26;20017;-58
2024/04/20 09:33:10;;;;;;;4.75;2.67;;;;;;;;;;5299146;26;20016;-59
2024/04/20 10:56:44;;;;;;;3.20;1.95;;;;;;;;;;5425358;25;20413;-60
2024/04/20 10:59:09;;;;;;;4.10;2.42;;;;;;;;;;5419931;26;20013;-58
2024/04/20 11:01:35;;;;;;;3.03;2.40;;;;;;;;;;5418987;26;20004;-58
2024/04/20 11:04:00;;;;;;;3.60;2.42;;;;;;;;;;5419814;26;20033;-59
2024/04/20 11:06:26;;;;;;;3.28;2.22;;;;;;;;;;5414960;26;20609;-61
2024/04/20 11:08:51;;;;;;;3.05;2.00;;;;;;;;;;5416717;26;20006;-60
2024/04/20 11:11:17;;;;;;;3.97;2.42;;;;;;;;;;5418678;26;20043;-61
2024/04/20 11:13:42;;;;;;;4.78;3.22;;;;;;;;;;5419443;26;19995;-61
2024/04/20 11:16:07;;;;;;;3.40;2.35;;;;;;;;;;5419394;26;20125;-61
2024/04/20 11:18:33;;;;;;;2.80;2.10;;;;;;;;;;5401507;26;20051;-61
2024/04/20 11:21:00;;;;;;;2.95;2.00;;;;;;;;;;5401956;26;19997;-61
2024/04/20 11:23:26;;;;;;;2.90;1.75;;;;;;;;;;5402088;26;20077;-61
2024/04/20 11:25:55;;;;;;;2.88;2.05;;;;;;;;;;5402221;26;20010;-60
2024/04/20 11:28:23;;;;;;;2.88;1.83;;;;;;;;;;5396533;26;20025;-58
2024/04/20 11:30:49;;;;;;;5.30;1.60;;;;;;;;;;5398840;26;20069;-57
2024/04/20 11:33:14;;;;;;;2.90;1.75;;;;;;;;;;5400034;26;20003;-58
2024/04/20 11:35:46;;;;;;;2.90;1.60;;;;;;;;;;5399082;26;20053;-58
2024/04/20 11:38:12;;;;;;;3.53;1.60;;;;;;;;;;5399021;26;19996;-58
2024/04/20 11:40:38;;;;;;;3.25;1.80;;;;;;;;;;5397100;26;20029;-58
2024/04/20 11:43:03;;;;;;;1.88;1.60;;;;;;;;;;5398254;26;20362;-57
2024/04/20 11:45:28;;;;;;;2.67;1.63;;;;;;;;;;5399605;26;19996;-57
2024/04/20 11:47:55;;;;;;;3.30;1.95;;;;;;;;;;5395797;26;20290;-57
2024/04/20 11:50:22;;;;;;;2.63;1.70;;;;;;;;;;5397397;26;20960;-60
2024/04/20 11:55:41;;;;;;;2.35;1.70;;;;;;;;;;5395848;26;20091;-57
2024/04/20 11:58:07;;;;;;;3.15;1.65;;;;;;;;;;5383074;26;20014;-60
2024/04/20 12:00:32;;;;;;;2.25;1.42;;;;;;;;;;5380207;26;19991;-57
2024/04/20 12:02:57;;;;;;;2.35;1.50;;;;;;;;;;5390451;26;20045;-58
2024/04/20 12:05:23;;;;;;;1.73;1.38;;;;;;;;;;5408170;26;20343;-59
2024/04/20 12:07:48;;;;;;;4.25;1.40;;;;;;;;;;5406412;26;20137;-59
2024/04/20 12:10:13;;;;;;;2.72;1.30;;;;;;;;;;5406216;26;20014;-58
2024/04/20 12:12:38;;;;;;;2.78;1.40;;;;;;;;;;5407268;26;20113;-58
2024/04/20 12:15:05;;;;;;;4.10;1.88;;;;;;;;;;5407348;26;20533;-58
2024/04/20 12:17:32;;;;;;;2.40;1.77;;;;;;;;;;5403692;26;19996;-58
2024/04/20 12:19:58;;;;;;;2.35;1.30;;;;;;;;;;5405875;26;20011;-58
2024/04/20 12:22:23;;;;;;;2.65;1.33;;;;;;;;;;5406467;26;20000;-58
2024/04/20 12:24:48;;;;;;;2.63;1.42;;;;;;;;;;5407311;26;19996;-58
2024/04/20 12:27:14;;;;;;;2.42;1.30;;;;;;;;;;5406366;26;20000;-57
2024/04/20 12:29:39;;;;;;;2.90;1.35;;;;;;;;;;5406143;26;20010;-58
2024/04/20 12:32:05;;;;;;;1.75;1.30;;;;;;;;;;5406245;26;20391;-58
2024/04/20 12:34:30;;;;;;;2.50;1.50;;;;;;;;;;5406818;26;19999;-58
2024/04/20 12:36:56;;;;;;;2.53;1.50;;;;;;;;;;5402497;26;20429;-58
2024/04/20 12:39:21;;;;;;;2.78;1.23;;;;;;;;;;5405890;26;20015;-60
2024/04/20 12:41:47;;;;;;;4.03;1.35;;;;;;;;;;5405132;26;20014;-58
2024/04/20 12:44:12;;;;;;;3.40;1.52;;;;;;;;;;5407236;26;20007;-58
2024/04/20 12:46:37;;;;;;;3.05;1.30;;;;;;;;;;5400897;26;19995;-58
2024/04/20 12:49:03;;;;;;;2.15;1.00;;;;;;;;;;5397932;26;20026;-58
2024/04/20 12:51:29;;;;;;;1.73;1.05;;;;;;;;;;5406720;26;20007;-58
2024/04/20 12:53:55;;;;;;;2.63;1.33;;;;;;;;;;5407377;26;20548;-57
2024/04/20 12:56:20;;;;;;;1.70;1.35;;;;;;;;;;5376994;26;20349;-59
2024/04/20 12:58:46;;;;;;;1.98;1.50;;;;;;;;;;5406124;26;19995;-59
2024/04/20 13:01:11;;;;;;;3.42;1.50;;;;;;;;;;5406639;26;20072;-59
2024/04/20 13:03:36;;;;;;;3.22;1.58;;;;;;;;;;5390586;26;20015;-59
2024/04/20 13:06:02;;;;;;;2.40;1.33;;;;;;;;;;5399934;26;20010;-59
2024/04/20 13:08:27;;;;;;;2.70;1.42;;;;;;;;;;5404988;26;20162;-59
2024/04/20 13:10:53;;;;;;;1.75;0.98;;;;;;;;;;5406467;26;20007;-58
2024/04/20 13:13:19;;;;;;;1.80;1.40;;;;;;;;;;5407068;26;19995;-59
2024/04/20 13:15:54;;;;;;;2.20;1.00;;;;;;;;;;5400974;26;19991;-59
2024/04/20 13:18:19;;;;;;;2.67;1.13;;;;;;;;;;5401924;26;20085;-58
2024/04/20 13:20:54;;;;;;;2.10;1.40;;;;;;;;;;5401543;26;20003;-59
2024/04/20 13:23:19;;;;;;;1.60;1.20;;;;;;;;;;5392254;26;20039;-58
2024/04/20 13:25:45;;;;;;;2.72;1.70;;;;;;;;;;5396295;26;20007;-58
2024/04/20 13:28:16;;;;;;;1.92;1.30;;;;;;;;;;5405735;26;20003;-58
2024/04/20 13:30:41;;;;;;;2.40;1.38;;;;;;;;;;5405844;26;20007;-58
2024/04/20 13:33:06;;;;;;;3.00;1.50;;;;;;;;;;5404465;26;20000;-58
2024/04/20 13:35:33;;;;;;;2.40;1.40;;;;;;;;;;5381876;26;20434;-58
2024/04/20 13:37:58;;;;;;;2.65;1.30;;;;;;;;;;5399530;26;20137;-59
2024/04/20 13:40:24;;;;;;;2.03;1.15;;;;;;;;;;5400172;26;20003;-59
2024/04/20 13:42:49;;;;;;;1.52;1.17;;;;;;;;;;5390430;26;20547;-59
2024/04/20 13:45:15;;;;;;;1.77;1.23;;;;;;;;;;5406060;26;20019;-59
2024/04/20 13:47:40;;;;;;;3.10;1.40;;;;;;;;;;5393024;26;20329;-58
2024/04/20 13:50:05;;;;;;;2.42;1.38;;;;;;;;;;5391192;26;19996;-58
2024/04/20 13:52:31;;;;;;;1.98;1.20;;;;;;;;;;5406785;26;20014;-59
2024/04/20 13:54:56;;;;;;;1.70;1.20;;;;;;;;;;5405724;26;19999;-58
2024/04/20 13:57:22;;;;;;;1.98;1.30;;;;;;;;;;5405241;26;20000;-58
2024/04/20 13:59:47;;;;;;;2.88;1.27;;;;;;;;;;5404751;26;20026;-58
2024/04/20 14:02:12;;;;;;;1.42;1.10;;;;;;;;;;5406170;26;20014;-58
2024/04/20 14:04:37;;;;;;;1.65;1.15;;;;;;;;;;5401295;26;20042;-58
2024/04/20 14:07:04;;;;;;;2.50;1.33;;;;;;;;;;5401136;26;20014;-59
2024/04/20 14:09:29;;;;;;;2.00;1.33;;;;;;;;;;5404956;26;20168;-59
2024/04/20 14:11:56;;;;;;;2.60;1.45;;;;;;;;;;5406091;26;20157;-58
2024/04/20 14:14:21;;;;;;;2.55;1.42;;;;;;;;;;5396158;26;20027;-58
2024/04/20 14:16:46;;;;;;;2.55;1.40;;;;;;;;;;5382590;26;20421;-58
2024/04/20 14:19:11;;;;;;;2.95;1.40;;;;;;;;;;5393389;26;20037;-58
2024/04/20 14:21:37;;;;;;;2.55;1.90;;;;;;;;;;5405247;26;20059;-58
2024/04/20 14:24:02;;;;;;;2.08;1.20;;;;;;;;;;5400688;26;20014;-59
2024/04/20 14:26:29;;;;;;;4.35;1.60;;;;;;;;;;5405237;26;20003;-59
2024/04/20 14:28:54;;;;;;;2.08;1.33;;;;;;;;;;5405203;26;20000;-59
2024/04/20 14:31:20;;;;;;;1.35;1.17;;;;;;;;;;5405616;26;20193;-58
2024/04/20 14:33:45;;;;;;;1.73;1.40;;;;;;;;;;5405286;26;20337;-58
2024/04/20 14:36:14;;;;;;;2.33;1.50;;;;;;;;;;5371293;26;20037;-59
2024/04/20 14:38:39;;;;;;;2.85;1.20;;;;;;;;;;5405074;26;20008;-58
2024/04/20 14:41:05;;;;;;;2.10;1.40;;;;;;;;;;5405016;26;20000;-58
2024/04/20 14:43:30;;;;;;;3.58;1.27;;;;;;;;;;5400226;26;20004;-59
2024/04/20 14:45:57;;;;;;;3.08;1.42;;;;;;;;;;5401180;26;20336;-58
2024/04/20 14:48:22;;;;;;;1.70;1.20;;;;;;;;;;5378468;26;20049;-58
2024/04/20 14:50:54;;;;;;;1.73;1.40;;;;;;;;;;5380989;26;20007;-58
2024/04/20 14:53:19;;;;;;;3.80;1.30;;;;;;;;;;5389846;26;20035;-58
2024/04/20 14:55:44;;;;;;;2.03;1.30;;;;;;;;;;5404294;26;20445;-58
2024/04/20 14:58:10;;;;;;;1.83;1.38;;;;;;;;;;5403998;26;20011;-58
2024/04/20 15:00:36;;;;;;;2.17;1.50;;;;;;;;;;5404626;26;20044;-58
2024/04/20 15:03:01;;;;;;;2.22;1.50;;;;;;;;;;5404579;26;20004;-59
2024/04/20 15:05:29;;;;;;;1.65;1.25;;;;;;;;;;5396338;26;20000;-58
2024/04/20 15:07:55;;;;;;;1.67;1.20;;;;;;;;;;5404092;26;20022;-59
2024/04/20 15:10:20;;;;;;;2.30;1.33;;;;;;;;;;5405214;26;20167;-59
2024/04/20 15:12:45;;;;;;;3.70;1.75;;;;;;;;;;5404539;26;20433;-58
2024/04/20 15:15:11;;;;;;;2.22;1.52;;;;;;;;;;5386936;26;20073;-58
2024/04/20 15:17:36;;;;;;;2.85;1.73;;;;;;;;;;5374625;26;19996;-58
2024/04/20 15:20:01;;;;;;;2.28;1.70;;;;;;;;;;5396409;26;20003;-59
2024/04/20 15:22:26;;;;;;;3.40;1.80;;;;;;;;;;5390537;26;19999;-58
2024/04/20 15:24:52;;;;;;;3.85;1.70;;;;;;;;;;5387702;26;20000;-58
2024/04/20 15:27:17;;;;;;;3.15;1.90;;;;;;;;;;5399445;26;20037;-58
2024/04/20 15:29:43;;;;;;;2.63;1.70;;;;;;;;;;5401221;26;20468;-59
2024/04/20 15:32:09;;;;;;;2.38;1.48;;;;;;;;;;5403613;26;20003;-59
2024/04/20 15:34:34;;;;;;;2.63;1.60;;;;;;;;;;5405918;26;20605;-58
2024/04/20 15:37:00;;;;;;;3.25;1.55;;;;;;;;;;5405678;26;20007;-58
2024/04/20 15:39:25;;;;;;;2.45;1.33;;;;;;;;;;5408097;26;20424;-58
2024/04/20 15:41:52;;;;;;;2.92;1.80;;;;;;;;;;5401475;26;19996;-58
2024/04/20 15:44:17;;;;;;;3.30;1.85;;;;;;;;;;5379520;26;20013;-58
2024/04/20 15:46:42;;;;;;;2.53;1.85;;;;;;;;;;5403805;26;19999;-58
2024/04/20 15:49:08;;;;;;;2.22;1.48;;;;;;;;;;5403626;26;20011;-58
2024/04/20 15:51:34;;;;;;;5.45;2.05;;;;;;;;;;5402636;26;20004;-58
2024/04/20 15:53:59;;;;;;;2.85;1.48;;;;;;;;;;5407518;26;19995;-58
2024/04/20 15:56:24;;;;;;;2.03;1.50;;;;;;;;;;5390112;26;20010;-58
2024/04/20 15:58:50;;;;;;;2.05;1.63;;;;;;;;;;5408411;26;20003;-58
2024/04/20 16:01:15;;;;;;;2.70;1.80;;;;;;;;;;5407134;26;20816;-58